Have a Safe July 4th! 

Flight Track Log - Related Links

Times and Time Zones

All times are in EDT time to prevent confusion due to time zone crossing. See the N762NC flight status page for this flight to view local times or setup timezone preferences in your user account.

Time Position Orientation Groundspeed Altitude Reporting Facility
EDT Latitude Longitude Course Direction KTS MPH feet Rate Location/Type
Sun 12:17:43 PM 33.6158 -84.5078 57° Northeast 381 438 2,800  Level Atlanta Center
Sun 12:18:43 PM 33.5719 -84.5700 230° Southwest 305 351 6,000 2,450 Climbing Atlanta Center
Sun 12:19:43 PM 33.4967 -84.5619 175° South 283 326 7,700 2,150 Climbing Atlanta Center
Sun 12:20:43 PM 33.4761 -84.4672 105° East 324 373 10,300 1,750 Climbing Atlanta Center
Sun 12:21:43 PM 33.4786 -84.3500 89° East 345 397 11,200 1,650 Climbing Atlanta Center
Sun 12:22:43 PM 33.5228 -84.2406 64° Northeast 351 404 13,600 2,150 Climbing Atlanta Center
Sun 12:23:00 PM 33.9229 -83.9375 57° Northeast  Level Estimated
Sun 12:23:43 PM 33.5875 -84.1361 53° Northeast 367 422 15,500  Level Atlanta Center
Sun 12:24:43 PM 33.6564 -84.0264 53° Northeast 402 463 17,300 1,400 Climbing Atlanta Center
Sun 12:25:43 PM 33.7169 -83.9239 55° Northeast 409 471 18,300 850 Climbing Atlanta Center
Sun 12:26:43 PM 33.7897 -83.7939 56° Northeast 442 509 19,000 350 Climbing Atlanta Center
Sun 12:27:43 PM 33.8708 -83.6686 52° Northeast 476 548 19,000  Level Atlanta Center
Sun 12:28:43 PM 33.9539 -83.5378 53° Northeast 487 560 19,000  Level Atlanta Center
Sun 12:29:43 PM 34.0325 -83.4047 54° Northeast 487 560 19,000  Level Atlanta Center
Sun 12:30:43 PM 34.1050 -83.2661 58° Northeast 481 554 19,000 -250 Level Atlanta Center
Sun 12:31:43 PM 34.1833 -83.1347 54° Northeast 486 559 18,500  Descending Atlanta Center
Sun 12:32:43 PM 34.2700 -83.0056 51° Northeast 471 542 19,000 -3,000 Climbing Atlanta Center
Sun 12:33:43 PM 34.3483 -82.8939 50° Northeast 444 511 12,500 -4,050 Descending Atlanta Center
Sun 12:34:43 PM 34.4203 -82.7797 53° Northeast 429 494 10,900 -750 Descending Atlanta Center
Sun 12:35:43 PM 34.5069 -82.6903 40° Northeast 416 479 11,000 -200 Climbing Atlanta Center
Sun 12:36:43 PM 34.5664 -82.5958 53° Northeast 371 427 10,500 -1,250 Descending Atlanta Center
Sun 12:37:43 PM 34.6258 -82.5192 47° Northeast 335 386 8,500 -2,150 Descending Atlanta Center
Sun 12:38:43 PM 34.6750 -82.4400 53° Northeast 311 358 6,200 -2,150 Descending Atlanta Center
Sun 12:39:43 PM 34.7222 -82.3708 50° Northeast 283 326 4,200 -1,350 Descending Atlanta Center
Sun 12:40:43 PM 34.7653 -82.3169 46° Northeast 247 284 3,500 -800 Descending Atlanta Center
Sun 12:41:43 PM 34.8106 -82.2831 32° Northeast 209 241 2,600 -550 Descending Atlanta Center
Sun 12:42:43 PM 34.8497 -82.2392 43° Northeast 202 232 2,400 -200 Descending Atlanta Center
Sun 12:45:00 PM 34.8833 -82.2167 39° Northeast  Level FlightAware Approximate

Login

Don't have an account? Register now (free) for customized features, flight alerts, and more!